sensor_id;sensor_type;location;lat;lon;timestamp;P1;durP1;ratioP1;P2;durP2;ratioP2
9722;SDS011;4900;49.306;8.500;2023-06-24T00:00:07;5.45;;;3.75;;
9722;SDS011;4900;49.306;8.500;2023-06-24T00:02:37;5.15;;;3.50;;
9722;SDS011;4900;49.306;8.500;2023-06-24T00:05:05;4.10;;;3.45;;
9722;SDS011;4900;49.306;8.500;2023-06-24T00:07:33;3.83;;;3.35;;
9722;SDS011;4900;49.306;8.500;2023-06-24T00:10:08;5.15;;;3.75;;
9722;SDS011;4900;49.306;8.500;2023-06-24T00:12:34;4.03;;;3.40;;
9722;SDS011;4900;49.306;8.500;2023-06-24T00:15:00;4.53;;;3.53;;
9722;SDS011;4900;49.306;8.500;2023-06-24T00:17:25;4.70;;;3.40;;
9722;SDS011;4900;49.306;8.500;2023-06-24T00:19:53;4.97;;;3.53;;
9722;SDS011;4900;49.306;8.500;2023-06-24T00:22:19;5.07;;;3.85;;
9722;SDS011;4900;49.306;8.500;2023-06-24T00:24:45;3.90;;;3.50;;
9722;SDS011;4900;49.306;8.500;2023-06-24T00:27:10;4.70;;;3.60;;
9722;SDS011;4900;49.306;8.500;2023-06-24T00:29:36;4.68;;;3.33;;
9722;SDS011;4900;49.306;8.500;2023-06-24T00:32:01;4.25;;;3.20;;
9722;SDS011;4900;49.306;8.500;2023-06-24T00:34:26;4.07;;;3.40;;
9722;SDS011;4900;49.306;8.500;2023-06-24T00:36:52;4.28;;;3.50;;
9722;SDS011;4900;49.306;8.500;2023-06-24T00:39:17;4.28;;;3.55;;
9722;SDS011;4900;49.306;8.500;2023-06-24T00:41:43;4.78;;;3.67;;
9722;SDS011;4900;49.306;8.500;2023-06-24T00:44:08;4.38;;;3.60;;
9722;SDS011;4900;49.306;8.500;2023-06-24T00:46:34;3.97;;;3.53;;
9722;SDS011;4900;49.306;8.500;2023-06-24T00:49:00;4.10;;;3.60;;
9722;SDS011;4900;49.306;8.500;2023-06-24T00:51:27;3.80;;;3.38;;
9722;SDS011;4900;49.306;8.500;2023-06-24T00:53:58;5.03;;;3.42;;
9722;SDS011;4900;49.306;8.500;2023-06-24T00:56:25;4.85;;;3.45;;
9722;SDS011;4900;49.306;8.500;2023-06-24T00:58:53;4.32;;;3.80;;
9722;SDS011;4900;49.306;8.500;2023-06-24T01:01:19;4.15;;;3.50;;
9722;SDS011;4900;49.306;8.500;2023-06-24T01:03:45;4.22;;;3.42;;
9722;SDS011;4900;49.306;8.500;2023-06-24T01:06:11;4.78;;;3.40;;
9722;SDS011;4900;49.306;8.500;2023-06-24T01:08:38;4.13;;;3.72;;
9722;SDS011;4900;49.306;8.500;2023-06-24T01:11:04;3.90;;;3.50;;
9722;SDS011;4900;49.306;8.500;2023-06-24T01:13:29;4.00;;;3.33;;
9722;SDS011;4900;49.306;8.500;2023-06-24T01:15:55;4.30;;;3.60;;
9722;SDS011;4900;49.306;8.500;2023-06-24T01:26:44;4.45;;;3.90;;
9722;SDS011;4900;49.306;8.500;2023-06-24T01:32:33;4.28;;;3.50;;
9722;SDS011;4900;49.306;8.500;2023-06-24T01:35:15;4.97;;;3.70;;
9722;SDS011;4900;49.306;8.500;2023-06-24T01:37:50;4.90;;;3.70;;
9722;SDS011;4900;49.306;8.500;2023-06-24T01:42:45;4.60;;;3.72;;
9722;SDS011;4900;49.306;8.500;2023-06-24T01:45:13;5.65;;;3.65;;
9722;SDS011;4900;49.306;8.500;2023-06-24T01:47:43;4.40;;;3.40;;
9722;SDS011;4900;49.306;8.500;2023-06-24T01:50:11;4.25;;;3.63;;
9722;SDS011;4900;49.306;8.500;2023-06-24T01:52:40;5.05;;;3.70;;
9722;SDS011;4900;49.306;8.500;2023-06-24T01:55:09;4.63;;;4.13;;
9722;SDS011;4900;49.306;8.500;2023-06-24T01:57:37;5.47;;;3.85;;
9722;SDS011;4900;49.306;8.500;2023-06-24T02:00:05;4.75;;;3.40;;
9722;SDS011;4900;49.306;8.500;2023-06-24T02:02:33;3.83;;;3.42;;
9722;SDS011;4900;49.306;8.500;2023-06-24T02:05:00;4.28;;;3.65;;
9722;SDS011;4900;49.306;8.500;2023-06-24T02:07:28;4.75;;;3.90;;
9722;SDS011;4900;49.306;8.500;2023-06-24T02:09:57;4.47;;;3.47;;
9722;SDS011;4900;49.306;8.500;2023-06-24T02:12:24;4.07;;;3.65;;
9722;SDS011;4900;49.306;8.500;2023-06-24T02:14:51;4.30;;;3.70;;
9722;SDS011;4900;49.306;8.500;2023-06-24T02:17:19;4.30;;;3.90;;
9722;SDS011;4900;49.306;8.500;2023-06-24T02:19:45;5.93;;;3.60;;
9722;SDS011;4900;49.306;8.500;2023-06-24T02:22:12;4.68;;;3.53;;
9722;SDS011;4900;49.306;8.500;2023-06-24T02:24:38;4.00;;;3.40;;
9722;SDS011;4900;49.306;8.500;2023-06-24T02:27:06;3.83;;;3.33;;
9722;SDS011;4900;49.306;8.500;2023-06-24T02:29:32;4.15;;;3.58;;
9722;SDS011;4900;49.306;8.500;2023-06-24T02:31:59;3.85;;;3.22;;
9722;SDS011;4900;49.306;8.500;2023-06-24T02:34:25;5.07;;;3.75;;
9722;SDS011;4900;49.306;8.500;2023-06-24T02:36:50;3.63;;;3.25;;
9722;SDS011;4900;49.306;8.500;2023-06-24T02:39:16;4.88;;;4.15;;
9722;SDS011;4900;49.306;8.500;2023-06-24T02:41:41;5.45;;;3.80;;
9722;SDS011;4900;49.306;8.500;2023-06-24T02:44:09;4.47;;;3.45;;
9722;SDS011;4900;49.306;8.500;2023-06-24T02:46:34;4.78;;;3.53;;
9722;SDS011;4900;49.306;8.500;2023-06-24T02:49:01;4.28;;;3.47;;
9722;SDS011;4900;49.306;8.500;2023-06-24T02:51:28;4.25;;;3.70;;
9722;SDS011;4900;49.306;8.500;2023-06-24T02:53:55;4.07;;;3.55;;
9722;SDS011;4900;49.306;8.500;2023-06-24T02:56:23;4.65;;;3.92;;
9722;SDS011;4900;49.306;8.500;2023-06-24T02:58:50;4.90;;;4.10;;
9722;SDS011;4900;49.306;8.500;2023-06-24T03:01:17;4.60;;;3.65;;
9722;SDS011;4900;49.306;8.500;2023-06-24T03:03:43;4.60;;;3.67;;
9722;SDS011;4900;49.306;8.500;2023-06-24T03:06:14;5.25;;;4.00;;
9722;SDS011;4900;49.306;8.500;2023-06-24T03:08:42;4.45;;;3.55;;
9722;SDS011;4900;49.306;8.500;2023-06-24T03:11:08;4.22;;;3.60;;
9722;SDS011;4900;49.306;8.500;2023-06-24T03:13:37;4.30;;;3.60;;
9722;SDS011;4900;49.306;8.500;2023-06-24T03:16:02;4.70;;;4.00;;
9722;SDS011;4900;49.306;8.500;2023-06-24T03:18:28;4.00;;;3.55;;
9722;SDS011;4900;49.306;8.500;2023-06-24T03:20:53;4.43;;;3.85;;
9722;SDS011;4900;49.306;8.500;2023-06-24T03:23:18;6.50;;;4.32;;
9722;SDS011;4900;49.306;8.500;2023-06-24T03:25:44;5.22;;;4.07;;
9722;SDS011;4900;49.306;8.500;2023-06-24T03:28:09;4.35;;;3.80;;
9722;SDS011;4900;49.306;8.500;2023-06-24T03:30:35;4.70;;;3.78;;
9722;SDS011;4900;49.306;8.500;2023-06-24T03:33:01;4.45;;;3.92;;
9722;SDS011;4900;49.306;8.500;2023-06-24T03:35:27;5.13;;;3.90;;
9722;SDS011;4900;49.306;8.500;2023-06-24T03:37:52;5.30;;;3.80;;
9722;SDS011;4900;49.306;8.500;2023-06-24T03:40:18;4.13;;;3.55;;
9722;SDS011;4900;49.306;8.500;2023-06-24T03:42:43;5.18;;;4.05;;
9722;SDS011;4900;49.306;8.500;2023-06-24T03:45:09;4.57;;;3.90;;
9722;SDS011;4900;49.306;8.500;2023-06-24T03:47:34;4.75;;;4.00;;
9722;SDS011;4900;49.306;8.500;2023-06-24T03:50:00;5.35;;;3.97;;
9722;SDS011;4900;49.306;8.500;2023-06-24T03:52:25;5.50;;;4.25;;
9722;SDS011;4900;49.306;8.500;2023-06-24T03:54:51;6.00;;;3.83;;
9722;SDS011;4900;49.306;8.500;2023-06-24T03:57:16;4.97;;;3.95;;
9722;SDS011;4900;49.306;8.500;2023-06-24T03:59:42;4.68;;;3.78;;
9722;SDS011;4900;49.306;8.500;2023-06-24T04:02:07;4.40;;;3.60;;
9722;SDS011;4900;49.306;8.500;2023-06-24T04:04:33;5.00;;;3.80;;
9722;SDS011;4900;49.306;8.500;2023-06-24T04:06:59;4.30;;;3.72;;
9722;SDS011;4900;49.306;8.500;2023-06-24T04:09:24;4.10;;;3.70;;
9722;SDS011;4900;49.306;8.500;2023-06-24T04:11:50;4.63;;;3.88;;
9722;SDS011;4900;49.306;8.500;2023-06-24T04:14:15;4.70;;;4.00;;
9722;SDS011;4900;49.306;8.500;2023-06-24T04:16:41;5.55;;;4.10;;
9722;SDS011;4900;49.306;8.500;2023-06-24T04:19:06;5.82;;;4.30;;
9722;SDS011;4900;49.306;8.500;2023-06-24T04:21:31;4.88;;;4.00;;
9722;SDS011;4900;49.306;8.500;2023-06-24T04:23:57;5.03;;;4.07;;
9722;SDS011;4900;49.306;8.500;2023-06-24T04:26:22;4.43;;;3.92;;
9722;SDS011;4900;49.306;8.500;2023-06-24T04:28:48;4.70;;;3.90;;
9722;SDS011;4900;49.306;8.500;2023-06-24T04:31:13;4.22;;;3.50;;
9722;SDS011;4900;49.306;8.500;2023-06-24T04:33:39;5.05;;;3.53;;
9722;SDS011;4900;49.306;8.500;2023-06-24T04:36:04;4.60;;;3.70;;
9722;SDS011;4900;49.306;8.500;2023-06-24T04:38:30;4.75;;;3.72;;
9722;SDS011;4900;49.306;8.500;2023-06-24T04:40:55;5.07;;;3.80;;
9722;SDS011;4900;49.306;8.500;2023-06-24T04:43:24;5.38;;;4.05;;
9722;SDS011;4900;49.306;8.500;2023-06-24T04:45:50;5.43;;;4.38;;
9722;SDS011;4900;49.306;8.500;2023-06-24T04:48:16;4.70;;;4.00;;
9722;SDS011;4900;49.306;8.500;2023-06-24T04:50:41;5.03;;;3.75;;
9722;SDS011;4900;49.306;8.500;2023-06-24T04:53:07;5.32;;;4.10;;
9722;SDS011;4900;49.306;8.500;2023-06-24T04:55:32;4.78;;;3.83;;
9722;SDS011;4900;49.306;8.500;2023-06-24T04:57:58;4.88;;;3.60;;
9722;SDS011;4900;49.306;8.500;2023-06-24T05:00:23;4.63;;;3.70;;
9722;SDS011;4900;49.306;8.500;2023-06-24T05:02:49;5.10;;;4.10;;
9722;SDS011;4900;49.306;8.500;2023-06-24T05:05:15;5.38;;;4.03;;
9722;SDS011;4900;49.306;8.500;2023-06-24T05:07:41;5.32;;;3.90;;
9722;SDS011;4900;49.306;8.500;2023-06-24T05:10:06;4.78;;;3.75;;
9722;SDS011;4900;49.306;8.500;2023-06-24T05:12:32;5.38;;;3.95;;
9722;SDS011;4900;49.306;8.500;2023-06-24T05:14:57;4.65;;;3.95;;
9722;SDS011;4900;49.306;8.500;2023-06-24T05:17:23;5.35;;;4.03;;
9722;SDS011;4900;49.306;8.500;2023-06-24T05:19:49;4.90;;;3.92;;
9722;SDS011;4900;49.306;8.500;2023-06-24T05:22:15;5.47;;;4.07;;
9722;SDS011;4900;49.306;8.500;2023-06-24T05:24:41;4.65;;;3.58;;
9722;SDS011;4900;49.306;8.500;2023-06-24T05:27:06;5.07;;;3.95;;
9722;SDS011;4900;49.306;8.500;2023-06-24T05:29:33;4.15;;;3.75;;
9722;SDS011;4900;49.306;8.500;2023-06-24T05:31:59;3.92;;;3.45;;
9722;SDS011;4900;49.306;8.500;2023-06-24T05:34:25;5.93;;;3.60;;
9722;SDS011;4900;49.306;8.500;2023-06-24T05:36:50;4.63;;;3.70;;
9722;SDS011;4900;49.306;8.500;2023-06-24T05:39:16;4.45;;;3.70;;
9722;SDS011;4900;49.306;8.500;2023-06-24T05:41:42;5.65;;;3.97;;
9722;SDS011;4900;49.306;8.500;2023-06-24T05:44:08;4.80;;;3.78;;
9722;SDS011;4900;49.306;8.500;2023-06-24T05:46:35;4.07;;;3.33;;
9722;SDS011;4900;49.306;8.500;2023-06-24T05:49:02;4.35;;;3.60;;
9722;SDS011;4900;49.306;8.500;2023-06-24T05:51:27;4.18;;;3.45;;
9722;SDS011;4900;49.306;8.500;2023-06-24T05:53:53;4.18;;;3.63;;
9722;SDS011;4900;49.306;8.500;2023-06-24T05:56:19;5.80;;;3.30;;
9722;SDS011;4900;49.306;8.500;2023-06-24T05:58:45;5.90;;;3.78;;
9722;SDS011;4900;49.306;8.500;2023-06-24T06:01:11;5.15;;;3.53;;
9722;SDS011;4900;49.306;8.500;2023-06-24T06:03:37;5.68;;;3.45;;
9722;SDS011;4900;49.306;8.500;2023-06-24T06:06:02;3.55;;;3.25;;
9722;SDS011;4900;49.306;8.500;2023-06-24T06:08:28;4.20;;;3.28;;
9722;SDS011;4900;49.306;8.500;2023-06-24T06:10:53;4.70;;;3.40;;
9722;SDS011;4900;49.306;8.500;2023-06-24T06:13:18;3.97;;;3.58;;
9722;SDS011;4900;49.306;8.500;2023-06-24T06:15:44;4.82;;;3.95;;
9722;SDS011;4900;49.306;8.500;2023-06-24T06:18:09;3.40;;;3.05;;
9722;SDS011;4900;49.306;8.500;2023-06-24T06:20:35;4.70;;;3.30;;
9722;SDS011;4900;49.306;8.500;2023-06-24T06:23:01;3.72;;;3.05;;
9722;SDS011;4900;49.306;8.500;2023-06-24T06:25:26;3.63;;;3.20;;
9722;SDS011;4900;49.306;8.500;2023-06-24T06:27:51;4.10;;;3.70;;
9722;SDS011;4900;49.306;8.500;2023-06-24T06:30:17;3.72;;;3.40;;
9722;SDS011;4900;49.306;8.500;2023-06-24T06:32:42;4.43;;;3.45;;
9722;SDS011;4900;49.306;8.500;2023-06-24T06:35:08;3.83;;;3.40;;
9722;SDS011;4900;49.306;8.500;2023-06-24T06:37:33;3.78;;;3.38;;
9722;SDS011;4900;49.306;8.500;2023-06-24T06:39:59;4.13;;;3.72;;
9722;SDS011;4900;49.306;8.500;2023-06-24T06:42:24;4.40;;;3.80;;
9722;SDS011;4900;49.306;8.500;2023-06-24T06:44:50;4.25;;;3.50;;
9722;SDS011;4900;49.306;8.500;2023-06-24T06:47:15;3.30;;;3.00;;
9722;SDS011;4900;49.306;8.500;2023-06-24T06:49:41;3.22;;;2.92;;
9722;SDS011;4900;49.306;8.500;2023-06-24T06:52:06;3.70;;;3.40;;
9722;SDS011;4900;49.306;8.500;2023-06-24T06:54:32;3.47;;;3.17;;
9722;SDS011;4900;49.306;8.500;2023-06-24T06:57:01;4.15;;;3.25;;
9722;SDS011;4900;49.306;8.500;2023-06-24T06:59:28;3.40;;;3.10;;
9722;SDS011;4900;49.306;8.500;2023-06-24T07:01:54;4.00;;;3.60;;
9722;SDS011;4900;49.306;8.500;2023-06-24T07:04:20;4.07;;;3.67;;
9722;SDS011;4900;49.306;8.500;2023-06-24T07:06:45;3.88;;;3.47;;
9722;SDS011;4900;49.306;8.500;2023-06-24T07:09:11;3.58;;;3.25;;
9722;SDS011;4900;49.306;8.500;2023-06-24T07:11:36;4.35;;;3.80;;
9722;SDS011;4900;49.306;8.500;2023-06-24T07:14:01;4.00;;;3.60;;
9722;SDS011;4900;49.306;8.500;2023-06-24T07:16:27;4.00;;;3.55;;
9722;SDS011;4900;49.306;8.500;2023-06-24T07:18:52;3.60;;;3.30;;
9722;SDS011;4900;49.306;8.500;2023-06-24T07:21:18;3.50;;;3.20;;
9722;SDS011;4900;49.306;8.500;2023-06-24T07:23:43;3.42;;;3.13;;
9722;SDS011;4900;49.306;8.500;2023-06-24T07:26:09;3.60;;;3.30;;
9722;SDS011;4900;49.306;8.500;2023-06-24T07:28:34;4.00;;;3.60;;
9722;SDS011;4900;49.306;8.500;2023-06-24T07:31:00;3.88;;;3.45;;
9722;SDS011;4900;49.306;8.500;2023-06-24T07:33:25;4.20;;;3.40;;
9722;SDS011;4900;49.306;8.500;2023-06-24T07:35:51;3.58;;;3.28;;
9722;SDS011;4900;49.306;8.500;2023-06-24T07:38:17;3.70;;;3.40;;
9722;SDS011;4900;49.306;8.500;2023-06-24T07:40:42;4.18;;;3.50;;
9722;SDS011;4900;49.306;8.500;2023-06-24T07:43:08;3.80;;;3.50;;
9722;SDS011;4900;49.306;8.500;2023-06-24T07:45:33;3.50;;;3.20;;
9722;SDS011;4900;49.306;8.500;2023-06-24T07:47:58;3.78;;;3.47;;
9722;SDS011;4900;49.306;8.500;2023-06-24T07:50:24;4.03;;;3.55;;
9722;SDS011;4900;49.306;8.500;2023-06-24T07:52:49;3.58;;;3.28;;
9722;SDS011;4900;49.306;8.500;2023-06-24T07:55:15;4.40;;;4.00;;
9722;SDS011;4900;49.306;8.500;2023-06-24T07:57:44;4.20;;;3.58;;
9722;SDS011;4900;49.306;8.500;2023-06-24T08:00:11;3.88;;;3.58;;
9722;SDS011;4900;49.306;8.500;2023-06-24T08:02:37;3.72;;;3.42;;
9722;SDS011;4900;49.306;8.500;2023-06-24T08:05:02;3.60;;;3.30;;
9722;SDS011;4900;49.306;8.500;2023-06-24T08:07:28;3.35;;;3.05;;
9722;SDS011;4900;49.306;8.500;2023-06-24T08:09:53;3.85;;;3.40;;
9722;SDS011;4900;49.306;8.500;2023-06-24T08:12:18;3.70;;;3.40;;
9722;SDS011;4900;49.306;8.500;2023-06-24T08:14:44;3.47;;;3.17;;
9722;SDS011;4900;49.306;8.500;2023-06-24T08:17:09;4.05;;;3.65;;
9722;SDS011;4900;49.306;8.500;2023-06-24T08:19:35;3.65;;;3.30;;
9722;SDS011;4900;49.306;8.500;2023-06-24T08:22:00;3.67;;;3.38;;
9722;SDS011;4900;49.306;8.500;2023-06-24T08:24:25;3.53;;;3.22;;
9722;SDS011;4900;49.306;8.500;2023-06-24T08:26:51;3.60;;;3.15;;
9722;SDS011;4900;49.306;8.500;2023-06-24T08:29:18;3.50;;;3.20;;
9722;SDS011;4900;49.306;8.500;2023-06-24T08:31:43;4.25;;;3.17;;
9722;SDS011;4900;49.306;8.500;2023-06-24T08:34:09;3.78;;;3.38;;
9722;SDS011;4900;49.306;8.500;2023-06-24T08:36:34;3.45;;;3.15;;
9722;SDS011;4900;49.306;8.500;2023-06-24T08:39:01;3.63;;;3.33;;
9722;SDS011;4900;49.306;8.500;2023-06-24T08:41:27;3.20;;;2.92;;
9722;SDS011;4900;49.306;8.500;2023-06-24T08:43:52;5.10;;;4.10;;
9722;SDS011;4900;49.306;8.500;2023-06-24T08:46:21;3.70;;;3.40;;
9722;SDS011;4900;49.306;8.500;2023-06-24T08:48:49;3.85;;;3.45;;
9722;SDS011;4900;49.306;8.500;2023-06-24T08:51:21;3.90;;;3.30;;
9722;SDS011;4900;49.306;8.500;2023-06-24T08:53:49;3.45;;;3.15;;
9722;SDS011;4900;49.306;8.500;2023-06-24T08:56:14;3.50;;;3.20;;
9722;SDS011;4900;49.306;8.500;2023-06-24T08:58:41;3.72;;;3.42;;
9722;SDS011;4900;49.306;8.500;2023-06-24T09:01:06;3.75;;;3.40;;
9722;SDS011;4900;49.306;8.500;2023-06-24T09:03:32;4.57;;;3.22;;
9722;SDS011;4900;49.306;8.500;2023-06-24T09:05:58;3.47;;;3.17;;
9722;SDS011;4900;49.306;8.500;2023-06-24T09:08:23;3.50;;;3.20;;
9722;SDS011;4900;49.306;8.500;2023-06-24T09:10:52;3.63;;;3.33;;
9722;SDS011;4900;49.306;8.500;2023-06-24T09:13:21;3.63;;;3.30;;
9722;SDS011;4900;49.306;8.500;2023-06-24T09:15:58;2.90;;;2.70;;
9722;SDS011;4900;49.306;8.500;2023-06-24T09:18:29;3.00;;;2.80;;
9722;SDS011;4900;49.306;8.500;2023-06-24T09:20:56;3.13;;;2.83;;
9722;SDS011;4900;49.306;8.500;2023-06-24T09:23:21;3.17;;;2.90;;
9722;SDS011;4900;49.306;8.500;2023-06-24T09:25:55;3.47;;;3.17;;
9722;SDS011;4900;49.306;8.500;2023-06-24T09:28:25;3.70;;;3.28;;
9722;SDS011;4900;49.306;8.500;2023-06-24T09:31:12;3.60;;;3.30;;
9722;SDS011;4900;49.306;8.500;2023-06-24T09:33:37;3.38;;;3.08;;
9722;SDS011;4900;49.306;8.500;2023-06-24T09:36:04;4.10;;;3.70;;
9722;SDS011;4900;49.306;8.500;2023-06-24T09:38:37;3.30;;;3.10;;
9722;SDS011;4900;49.306;8.500;2023-06-24T09:41:04;3.67;;;3.38;;
9722;SDS011;4900;49.306;8.500;2023-06-24T09:43:33;3.78;;;3.47;;
9722;SDS011;4900;49.306;8.500;2023-06-24T09:46:05;3.58;;;3.28;;
9722;SDS011;4900;49.306;8.500;2023-06-24T09:48:32;3.15;;;2.95;;
9722;SDS011;4900;49.306;8.500;2023-06-24T09:50:59;3.63;;;2.88;;
9722;SDS011;4900;49.306;8.500;2023-06-24T09:53:27;3.72;;;3.13;;
9722;SDS011;4900;49.306;8.500;2023-06-24T09:55:56;3.42;;;3.13;;
9722;SDS011;4900;49.306;8.500;2023-06-24T09:58:25;3.10;;;2.90;;
9722;SDS011;4900;49.306;8.500;2023-06-24T10:00:51;2.92;;;2.63;;
9722;SDS011;4900;49.306;8.500;2023-06-24T10:03:19;3.10;;;2.80;;
9722;SDS011;4900;49.306;8.500;2023-06-24T10:05:44;2.85;;;2.65;;
9722;SDS011;4900;49.306;8.500;2023-06-24T10:08:10;3.20;;;2.90;;
9722;SDS011;4900;49.306;8.500;2023-06-24T10:10:38;2.85;;;2.65;;
9722;SDS011;4900;49.306;8.500;2023-06-24T10:13:04;3.28;;;2.97;;
9722;SDS011;4900;49.306;8.500;2023-06-24T10:15:30;3.38;;;3.08;;
9722;SDS011;4900;49.306;8.500;2023-06-24T10:17:55;4.47;;;2.90;;
9722;SDS011;4900;49.306;8.500;2023-06-24T10:20:26;3.50;;;3.20;;
9722;SDS011;4900;49.306;8.500;2023-06-24T10:22:52;3.10;;;2.80;;
9722;SDS011;4900;49.306;8.500;2023-06-24T10:25:18;2.97;;;2.78;;
9722;SDS011;4900;49.306;8.500;2023-06-24T10:27:44;3.05;;;2.78;;
9722;SDS011;4900;49.306;8.500;2023-06-24T10:30:16;4.25;;;3.30;;
9722;SDS011;4900;49.306;8.500;2023-06-24T10:32:44;3.38;;;3.08;;
9722;SDS011;4900;49.306;8.500;2023-06-24T10:35:28;3.20;;;2.90;;
9722;SDS011;4900;49.306;8.500;2023-06-24T10:37:58;3.33;;;2.85;;
9722;SDS011;4900;49.306;8.500;2023-06-24T10:40:39;2.90;;;2.70;;
9722;SDS011;4900;49.306;8.500;2023-06-24T10:45:58;3.20;;;2.90;;
9722;SDS011;4900;49.306;8.500;2023-06-24T10:48:24;3.03;;;2.60;;
9722;SDS011;4900;49.306;8.500;2023-06-24T10:50:50;3.20;;;2.90;;
9722;SDS011;4900;49.306;8.500;2023-06-24T10:53:16;3.10;;;2.88;;
9722;SDS011;4900;49.306;8.500;2023-06-24T10:55:45;3.05;;;2.75;;
9722;SDS011;4900;49.306;8.500;2023-06-24T10:58:12;2.92;;;2.70;;
9722;SDS011;4900;49.306;8.500;2023-06-24T11:00:40;3.40;;;3.10;;
9722;SDS011;4900;49.306;8.500;2023-06-24T11:03:10;2.97;;;2.78;;
9722;SDS011;4900;49.306;8.500;2023-06-24T11:05:40;3.60;;;3.30;;
9722;SDS011;4900;49.306;8.500;2023-06-24T11:08:06;3.03;;;2.72;;
9722;SDS011;4900;49.306;8.500;2023-06-24T11:10:32;3.15;;;2.85;;
9722;SDS011;4900;49.306;8.500;2023-06-24T11:12:57;3.00;;;2.80;;
9722;SDS011;4900;49.306;8.500;2023-06-24T11:15:30;2.80;;;2.60;;
9722;SDS011;4900;49.306;8.500;2023-06-24T11:17:57;3.30;;;3.10;;
9722;SDS011;4900;49.306;8.500;2023-06-24T11:20:22;3.20;;;3.00;;
9722;SDS011;4900;49.306;8.500;2023-06-24T11:22:48;3.05;;;2.80;;
9722;SDS011;4900;49.306;8.500;2023-06-24T11:25:20;3.63;;;2.90;;
9722;SDS011;4900;49.306;8.500;2023-06-24T11:27:47;3.00;;;2.70;;
9722;SDS011;4900;49.306;8.500;2023-06-24T11:30:15;3.35;;;3.05;;
9722;SDS011;4900;49.306;8.500;2023-06-24T11:32:42;3.05;;;2.85;;
9722;SDS011;4900;49.306;8.500;2023-06-24T11:35:09;3.00;;;2.70;;
9722;SDS011;4900;49.306;8.500;2023-06-24T11:37:36;2.80;;;2.60;;
9722;SDS011;4900;49.306;8.500;2023-06-24T11:42:31;3.40;;;3.10;;
9722;SDS011;4900;49.306;8.500;2023-06-24T11:45:04;3.00;;;2.80;;
9722;SDS011;4900;49.306;8.500;2023-06-24T11:47:34;3.28;;;2.97;;
9722;SDS011;4900;49.306;8.500;2023-06-24T11:50:01;3.20;;;2.90;;
9722;SDS011;4900;49.306;8.500;2023-06-24T11:55:17;3.30;;;3.00;;
9722;SDS011;4900;49.306;8.500;2023-06-24T11:57:50;3.15;;;2.85;;
9722;SDS011;4900;49.306;8.500;2023-06-24T12:00:19;3.22;;;2.92;;
9722;SDS011;4900;49.306;8.500;2023-06-24T12:03:01;3.17;;;2.88;;
9722;SDS011;4900;49.306;8.500;2023-06-24T12:05:30;3.70;;;2.80;;
9722;SDS011;4900;49.306;8.500;2023-06-24T12:07:57;3.03;;;2.80;;
9722;SDS011;4900;49.306;8.500;2023-06-24T12:10:24;3.15;;;2.90;;
9722;SDS011;4900;49.306;8.500;2023-06-24T12:12:50;3.40;;;2.80;;
9722;SDS011;4900;49.306;8.500;2023-06-24T12:15:15;3.15;;;2.85;;
9722;SDS011;4900;49.306;8.500;2023-06-24T12:17:41;2.85;;;2.65;;
9722;SDS011;4900;49.306;8.500;2023-06-24T12:20:07;2.92;;;2.72;;
9722;SDS011;4900;49.306;8.500;2023-06-24T12:22:33;3.10;;;2.63;;
9722;SDS011;4900;49.306;8.500;2023-06-24T12:24:58;2.92;;;2.72;;
9722;SDS011;4900;49.306;8.500;2023-06-24T12:27:23;3.08;;;2.78;;
9722;SDS011;4900;49.306;8.500;2023-06-24T12:29:49;3.10;;;2.80;;
9722;SDS011;4900;49.306;8.500;2023-06-24T12:32:15;3.17;;;2.88;;
9722;SDS011;4900;49.306;8.500;2023-06-24T12:34:40;2.83;;;2.63;;
9722;SDS011;4900;49.306;8.500;2023-06-24T12:37:05;3.03;;;2.78;;
9722;SDS011;4900;49.306;8.500;2023-06-24T12:39:31;3.30;;;3.00;;
9722;SDS011;4900;49.306;8.500;2023-06-24T12:41:56;3.40;;;3.10;;
9722;SDS011;4900;49.306;8.500;2023-06-24T12:44:22;3.50;;;3.20;;
9722;SDS011;4900;49.306;8.500;2023-06-24T12:46:47;3.63;;;3.00;;
9722;SDS011;4900;49.306;8.500;2023-06-24T12:49:13;3.33;;;3.03;;
9722;SDS011;4900;49.306;8.500;2023-06-24T12:51:38;3.10;;;2.85;;
9722;SDS011;4900;49.306;8.500;2023-06-24T12:54:04;3.30;;;3.00;;
9722;SDS011;4900;49.306;8.500;2023-06-24T12:56:29;3.55;;;3.25;;
9722;SDS011;4900;49.306;8.500;2023-06-24T12:58:55;3.47;;;3.17;;
9722;SDS011;4900;49.306;8.500;2023-06-24T13:01:20;3.30;;;3.00;;
9722;SDS011;4900;49.306;8.500;2023-06-24T13:03:46;3.70;;;3.40;;
9722;SDS011;4900;49.306;8.500;2023-06-24T13:06:11;3.50;;;3.10;;
9722;SDS011;4900;49.306;8.500;2023-06-24T13:08:36;3.50;;;3.20;;
9722;SDS011;4900;49.306;8.500;2023-06-24T13:11:02;3.42;;;3.13;;
9722;SDS011;4900;49.306;8.500;2023-06-24T13:13:27;3.33;;;3.03;;
9722;SDS011;4900;49.306;8.500;2023-06-24T13:15:53;3.67;;;3.38;;
9722;SDS011;4900;49.306;8.500;2023-06-24T13:18:18;3.45;;;3.15;;
9722;SDS011;4900;49.306;8.500;2023-06-24T13:20:44;3.78;;;3.47;;
9722;SDS011;4900;49.306;8.500;2023-06-24T13:23:10;3.42;;;3.13;;
9722;SDS011;4900;49.306;8.500;2023-06-24T13:25:36;3.33;;;3.08;;
9722;SDS011;4900;49.306;8.500;2023-06-24T13:28:02;3.35;;;3.05;;
9722;SDS011;4900;49.306;8.500;2023-06-24T13:30:28;2.97;;;2.78;;
9722;SDS011;4900;49.306;8.500;2023-06-24T13:32:53;2.97;;;2.75;;
9722;SDS011;4900;49.306;8.500;2023-06-24T13:35:19;3.45;;;3.15;;
9722;SDS011;4900;49.306;8.500;2023-06-24T13:37:44;3.13;;;2.92;;
9722;SDS011;4900;49.306;8.500;2023-06-24T13:40:10;3.40;;;3.10;;
9722;SDS011;4900;49.306;8.500;2023-06-24T13:42:36;3.30;;;3.00;;
9722;SDS011;4900;49.306;8.500;2023-06-24T13:45:01;3.42;;;3.13;;
9722;SDS011;4900;49.306;8.500;2023-06-24T13:47:27;3.00;;;2.80;;
9722;SDS011;4900;49.306;8.500;2023-06-24T13:49:52;3.25;;;3.00;;
9722;SDS011;4900;49.306;8.500;2023-06-24T13:52:18;3.50;;;3.20;;
9722;SDS011;4900;49.306;8.500;2023-06-24T13:54:43;3.40;;;3.10;;
9722;SDS011;4900;49.306;8.500;2023-06-24T13:57:09;3.40;;;3.10;;
9722;SDS011;4900;49.306;8.500;2023-06-24T13:59:34;3.05;;;2.75;;
9722;SDS011;4900;49.306;8.500;2023-06-24T14:02:00;3.58;;;3.28;;
9722;SDS011;4900;49.306;8.500;2023-06-24T14:04:25;3.40;;;3.10;;
9722;SDS011;4900;49.306;8.500;2023-06-24T14:06:51;3.40;;;3.10;;
9722;SDS011;4900;49.306;8.500;2023-06-24T14:09:18;3.28;;;2.95;;
9722;SDS011;4900;49.306;8.500;2023-06-24T14:11:43;3.30;;;3.00;;
9722;SDS011;4900;49.306;8.500;2023-06-24T14:14:09;3.50;;;3.20;;
9722;SDS011;4900;49.306;8.500;2023-06-24T14:16:34;3.70;;;3.40;;
9722;SDS011;4900;49.306;8.500;2023-06-24T14:19:00;3.50;;;3.20;;
9722;SDS011;4900;49.306;8.500;2023-06-24T14:21:25;3.45;;;3.22;;
9722;SDS011;4900;49.306;8.500;2023-06-24T14:23:51;3.92;;;3.20;;
9722;SDS011;4900;49.306;8.500;2023-06-24T14:26:16;3.40;;;3.10;;
9722;SDS011;4900;49.306;8.500;2023-06-24T14:28:42;3.53;;;3.22;;
9722;SDS011;4900;49.306;8.500;2023-06-24T14:31:07;3.58;;;3.28;;
9722;SDS011;4900;49.306;8.500;2023-06-24T14:33:33;3.13;;;2.92;;
9722;SDS011;4900;49.306;8.500;2023-06-24T14:35:58;3.50;;;3.20;;
9722;SDS011;4900;49.306;8.500;2023-06-24T14:38:23;3.38;;;3.08;;
9722;SDS011;4900;49.306;8.500;2023-06-24T14:40:49;3.13;;;2.83;;
9722;SDS011;4900;49.306;8.500;2023-06-24T14:43:14;3.60;;;3.30;;
9722;SDS011;4900;49.306;8.500;2023-06-24T14:45:40;3.97;;;3.30;;
9722;SDS011;4900;49.306;8.500;2023-06-24T14:48:05;3.50;;;3.20;;
9722;SDS011;4900;49.306;8.500;2023-06-24T14:50:31;3.50;;;3.20;;
9722;SDS011;4900;49.306;8.500;2023-06-24T14:52:56;3.47;;;3.17;;
9722;SDS011;4900;49.306;8.500;2023-06-24T14:55:21;3.78;;;3.47;;
9722;SDS011;4900;49.306;8.500;2023-06-24T14:57:47;3.60;;;3.30;;
9722;SDS011;4900;49.306;8.500;2023-06-24T15:00:13;3.00;;;2.80;;
9722;SDS011;4900;49.306;8.500;2023-06-24T15:02:39;3.30;;;3.08;;
9722;SDS011;4900;49.306;8.500;2023-06-24T15:05:04;3.40;;;3.10;;
9722;SDS011;4900;49.306;8.500;2023-06-24T15:07:30;3.50;;;3.20;;
9722;SDS011;4900;49.306;8.500;2023-06-24T15:09:55;3.50;;;3.20;;
9722;SDS011;4900;49.306;8.500;2023-06-24T15:12:21;3.63;;;3.33;;
9722;SDS011;4900;49.306;8.500;2023-06-24T15:14:46;3.67;;;3.38;;
9722;SDS011;4900;49.306;8.500;2023-06-24T15:17:13;3.50;;;3.20;;
9722;SDS011;4900;49.306;8.500;2023-06-24T15:19:39;3.55;;;3.25;;
9722;SDS011;4900;49.306;8.500;2023-06-24T15:22:05;3.42;;;3.13;;
9722;SDS011;4900;49.306;8.500;2023-06-24T15:24:31;3.40;;;3.10;;
9722;SDS011;4900;49.306;8.500;2023-06-24T15:26:57;3.70;;;3.40;;
9722;SDS011;4900;49.306;8.500;2023-06-24T15:29:24;4.60;;;3.10;;
9722;SDS011;4900;49.306;8.500;2023-06-24T15:31:50;3.78;;;3.47;;